createdAt,value
2022-10-17T00:01:39.538Z,100363.41
2022-10-17T00:04:06.958Z,100372.19
2022-10-17T00:06:34.080Z,100374.81
2022-10-17T00:09:01.236Z,100379.41
2022-10-17T00:11:28.655Z,100370.69
2022-10-17T00:13:56.119Z,100366.13
2022-10-17T00:16:27.274Z,100367.97
2022-10-17T00:18:54.713Z,100366.91
2022-10-17T00:21:22.398Z,100373.16
2022-10-17T00:23:49.591Z,100367.84
2022-10-17T00:26:17.078Z,100368.84
2022-10-17T00:28:47.896Z,100377.62
2022-10-17T00:31:15.302Z,100374.19
2022-10-17T00:33:44.110Z,100374.41
2022-10-17T00:36:13.644Z,100378.56
2022-10-17T00:38:41.553Z,100373.31
2022-10-17T00:41:09.389Z,100379.44
2022-10-17T00:43:53.501Z,100382.13
2022-10-17T00:46:46.436Z,100381.12
2022-10-17T00:49:13.580Z,100382.91
2022-10-17T00:51:41.899Z,100374.16
2022-10-17T00:54:09.996Z,100371.50
2022-10-17T00:56:37.297Z,100375.87
2022-10-17T01:01:38.100Z,100370.62
2022-10-17T01:04:05.553Z,100372.56
2022-10-17T01:06:32.745Z,100368.03
2022-10-17T01:08:59.869Z,100367.97
2022-10-17T01:11:36.857Z,100366.37
2022-10-17T01:14:06.797Z,100368.84
2022-10-17T01:16:40.125Z,100366.44
2022-10-17T01:19:33.557Z,100370.81
2022-10-17T01:22:11.720Z,100368.41
2022-10-17T01:24:48.176Z,100376.22
2022-10-17T01:27:34.427Z,100380.50
2022-10-17T01:30:05.383Z,100377.06
2022-10-17T01:32:39.842Z,100377.03
2022-10-17T01:35:07.514Z,100374.41
2022-10-17T01:37:40.991Z,100366.59
2022-10-17T01:40:10.639Z,100358.50
2022-10-17T01:42:51.356Z,100362.87
2022-10-17T01:45:38.861Z,100357.62
2022-10-17T01:48:07.748Z,100362.09
2022-10-17T01:50:36.349Z,100356.78
2022-10-17T01:53:05.973Z,100360.44
2022-10-17T01:55:34.995Z,100368.25
2022-10-17T01:58:04.524Z,100368.16
2022-10-17T02:00:32.640Z,100363.81
2022-10-17T02:03:00.591Z,100369.84
2022-10-17T02:05:35.863Z,100373.44
2022-10-17T02:08:03.934Z,100370.81
2022-10-17T02:10:31.013Z,100373.47
2022-10-17T02:13:00.758Z,100370.88
2022-10-17T02:15:34.476Z,100368.16
2022-10-17T02:18:10.516Z,100372.56
2022-10-17T02:20:41.096Z,100374.38
2022-10-17T02:23:09.636Z,100376.22
2022-10-17T02:25:41.769Z,100372.69
2022-10-17T02:28:22.024Z,100379.69
2022-10-17T02:30:50.001Z,100379.72
2022-10-17T02:33:18.969Z,100368.38
2022-10-17T02:35:47.579Z,100373.72
2022-10-17T02:38:15.395Z,100379.91
2022-10-17T02:40:42.732Z,100378.12
2022-10-17T02:43:10.053Z,100378.19
2022-10-17T02:45:37.451Z,100380.91
2022-10-17T02:48:06.050Z,100387.09
2022-10-17T02:50:52.024Z,100385.25
2022-10-17T02:53:25.051Z,100389.69
2022-10-17T02:55:54.105Z,100386.13
2022-10-17T02:58:23.072Z,100392.34
2022-10-17T03:00:50.270Z,100403.75
2022-10-17T03:03:25.111Z,100399.34
2022-10-17T03:05:52.860Z,100399.31
2022-10-17T03:08:21.899Z,100405.44
2022-10-17T03:10:49.120Z,100398.50
2022-10-17T03:13:16.980Z,100397.53
2022-10-17T03:15:45.158Z,100401.06
2022-10-17T03:18:12.432Z,100399.41
2022-10-17T03:20:39.826Z,100401.06
2022-10-17T03:23:06.955Z,100406.41
2022-10-17T03:25:34.368Z,100411.69
2022-10-17T03:28:02.267Z,100409.03
2022-10-17T03:30:29.413Z,100410.00
2022-10-17T03:32:59.744Z,100414.41
2022-10-17T03:35:27.346Z,100423.16
2022-10-17T03:37:55.282Z,100419.59
2022-10-17T03:40:22.620Z,100430.13
2022-10-17T03:42:50.023Z,100424.03
2022-10-17T03:45:17.171Z,100430.13
2022-10-17T03:47:44.511Z,100433.66
2022-10-17T03:50:12.449Z,100432.75
2022-10-17T03:52:39.806Z,100440.69
2022-10-17T03:55:07.152Z,100445.94
2022-10-17T03:57:35.634Z,100444.16
2022-10-17T04:00:04.270Z,100442.41
2022-10-17T04:02:41.228Z,100438.91
2022-10-17T04:05:09.313Z,100446.81
2022-10-17T04:07:37.666Z,100436.28
2022-10-17T04:10:05.318Z,100442.41
2022-10-17T04:12:32.976Z,100443.28
2022-10-17T04:15:00.199Z,100447.69
2022-10-17T04:17:27.601Z,100451.19
2022-10-17T04:19:55.127Z,100445.91
2022-10-17T04:22:23.055Z,100447.69
2022-10-17T04:24:50.176Z,100444.16
2022-10-17T04:27:18.243Z,100455.56
2022-10-17T04:29:45.486Z,100468.69
2022-10-17T04:32:13.145Z,100461.69
2022-10-17T04:34:40.740Z,100464.34
2022-10-17T04:37:07.898Z,100470.59
2022-10-17T04:39:35.528Z,100474.91
2022-10-17T04:42:03.539Z,100481.09
2022-10-17T04:44:31.451Z,100475.84
2022-10-17T04:46:58.719Z,100469.66
2022-10-17T04:49:26.605Z,100465.22
2022-10-17T04:51:54.144Z,100471.34
2022-10-17T04:54:21.603Z,100469.66
2022-10-17T04:56:49.289Z,100468.75
2022-10-17T04:59:16.402Z,100474.91
2022-10-17T05:01:43.865Z,100483.66
2022-10-17T05:04:11.817Z,100484.56
2022-10-17T05:06:39.189Z,100490.69
2022-10-17T05:09:07.208Z,100488.97
2022-10-17T05:11:34.933Z,100488.97
2022-10-17T05:14:02.320Z,100488.91
2022-10-17T05:16:29.877Z,100493.34
2022-10-17T05:18:57.783Z,100496.00
2022-10-17T05:21:27.844Z,100500.38
2022-10-17T05:23:55.287Z,100507.38
2022-10-17T05:26:22.986Z,100505.63
2022-10-17T05:28:52.518Z,100510.88
2022-10-17T05:31:20.524Z,100517.00
2022-10-17T05:33:48.018Z,100517.00
2022-10-17T05:36:15.249Z,100521.38
2022-10-17T05:38:42.417Z,100518.78
2022-10-17T05:41:10.514Z,100530.16
2022-10-17T05:43:37.947Z,100530.16
2022-10-17T05:46:06.030Z,100534.53
2022-10-17T05:48:33.776Z,100528.41
2022-10-17T05:51:09.539Z,100540.59
2022-10-17T05:53:38.486Z,100542.31
2022-10-17T05:56:07.955Z,100547.66
2022-10-17T05:58:53.355Z,100546.75
2022-10-17T06:01:24.382Z,100551.19
2022-10-17T06:03:51.910Z,100555.56
2022-10-17T06:06:19.202Z,100566.91
2022-10-17T06:08:46.672Z,100577.47
2022-10-17T06:11:14.537Z,100572.13
2022-10-17T06:13:41.879Z,100576.59
2022-10-17T06:16:09.806Z,100583.56
2022-10-17T06:18:37.284Z,100579.22
2022-10-17T06:21:05.202Z,100579.22
2022-10-17T06:23:32.799Z,100590.59
2022-10-17T06:26:00.840Z,100590.59
2022-10-17T06:28:29.312Z,100587.09
2022-10-17T06:30:57.135Z,100587.13
2022-10-17T06:33:24.952Z,100585.34
2022-10-17T06:35:56.466Z,100595.00
2022-10-17T06:38:24.154Z,100595.88
2022-10-17T06:40:53.963Z,100599.37
2022-10-17T06:43:25.574Z,100608.12
2022-10-17T06:48:29.461Z,100608.16
2022-10-17T06:50:58.965Z,100611.62
2022-10-17T06:53:28.523Z,100613.41
2022-10-17T06:56:02.910Z,100617.78
2022-10-17T06:58:32.264Z,100619.53
2022-10-17T07:01:01.438Z,100625.69
2022-10-17T07:03:28.945Z,100627.41
2022-10-17T07:05:56.886Z,100623.94
2022-10-17T07:08:24.550Z,100623.94
2022-10-17T07:10:51.741Z,100631.81
2022-10-17T07:13:19.284Z,100627.44
2022-10-17T07:15:46.728Z,100627.44
2022-10-17T07:18:14.536Z,100630.06
2022-10-17T07:20:41.668Z,100633.56
2022-10-17T07:23:09.494Z,100627.28
2022-10-17T07:25:40.022Z,100633.53
2022-10-17T07:28:07.797Z,100644.72
2022-10-17T07:30:35.451Z,100642.97
2022-10-17T07:33:03.538Z,100642.16
2022-10-17T07:35:31.336Z,100636.19
2022-10-17T07:37:58.817Z,100637.03
2022-10-17T07:40:27.076Z,100640.56
2022-10-17T07:42:55.909Z,100642.31
2022-10-17T07:45:27.180Z,100644.97
2022-10-17T07:47:57.690Z,100643.19
2022-10-17T07:50:25.482Z,100645.81
2022-10-17T07:52:52.592Z,100645.78
2022-10-17T07:55:19.752Z,100650.19
2022-10-17T07:57:47.220Z,100652.84
2022-10-17T08:00:14.424Z,100649.38
2022-10-17T08:02:41.883Z,100644.81
2022-10-17T08:05:09.119Z,100647.50
2022-10-17T08:07:36.247Z,100648.28
2022-10-17T08:10:03.899Z,100653.31
2022-10-17T08:12:34.223Z,100661.56
2022-10-17T08:15:01.590Z,100664.28
2022-10-17T08:17:29.264Z,100653.47
2022-10-17T08:19:56.403Z,100663.75
2022-10-17T08:22:23.591Z,100660.41
2022-10-17T08:24:51.014Z,100660.63
2022-10-17T08:27:23.788Z,100660.44
2022-10-17T08:29:54.267Z,100663.87
2022-10-17T08:32:21.937Z,100666.34
2022-10-17T08:34:49.093Z,100675.69
2022-10-17T08:37:16.556Z,100661.09
2022-10-17T08:39:43.792Z,100667.53
2022-10-17T08:42:27.178Z,100665.59
2022-10-17T08:45:14.713Z,100661.94
2022-10-17T08:47:45.711Z,100665.44
2022-10-17T08:50:15.941Z,100668.16
2022-10-17T08:52:45.192Z,100666.78
2022-10-17T08:55:14.979Z,100661.09
2022-10-17T08:57:42.403Z,100663.00
2022-10-17T09:00:19.338Z,100668.91
2022-10-17T09:02:46.730Z,100667.34
2022-10-17T09:05:32.443Z,100669.53
2022-10-17T09:08:02.382Z,100666.47
2022-10-17T09:10:48.250Z,100663.34
2022-10-17T09:13:31.089Z,100673.59
2022-10-17T09:16:03.146Z,100672.66
2022-10-17T09:18:31.879Z,100667.06
2022-10-17T09:21:00.750Z,100661.91
2022-10-17T09:23:29.024Z,100667.91
2022-10-17T09:25:58.259Z,100671.00
2022-10-17T09:28:27.416Z,100669.06
2022-10-17T09:31:00.831Z,100670.38
2022-10-17T09:33:53.827Z,100672.47
2022-10-17T09:36:29.120Z,100672.09
2022-10-17T09:39:06.608Z,100667.06
2022-10-17T09:44:28.385Z,100667.75
2022-10-17T09:46:55.451Z,100678.81
2022-10-17T09:49:26.142Z,100675.62
2022-10-17T09:51:53.558Z,100673.34
2022-10-17T09:54:22.449Z,100668.63
2022-10-17T09:56:58.731Z,100671.75
2022-10-17T09:59:55.615Z,100676.00
2022-10-17T10:02:23.322Z,100667.53
2022-10-17T10:05:08.829Z,100666.66
2022-10-17T10:07:37.180Z,100668.91
2022-10-17T10:10:05.718Z,100661.22
2022-10-17T10:12:34.852Z,100663.25
2022-10-17T10:15:02.019Z,100667.59
2022-10-17T10:17:36.949Z,100657.41
2022-10-17T10:20:24.288Z,100664.47
2022-10-17T10:23:09.706Z,100663.56
2022-10-17T10:25:36.910Z,100667.81
2022-10-17T10:28:09.658Z,100660.31
2022-10-17T10:30:39.814Z,100663.87
2022-10-17T10:33:10.523Z,100663.84
2022-10-17T10:35:37.647Z,100660.06
2022-10-17T10:38:08.754Z,100669.09
2022-10-17T10:40:44.868Z,100649.97
2022-10-17T10:43:20.499Z,100661.78
2022-10-17T10:45:48.922Z,100651.16
2022-10-17T10:48:21.707Z,100650.09
2022-10-17T10:50:55.287Z,100650.16
2022-10-17T10:53:26.042Z,100645.94
2022-10-17T10:55:55.129Z,100650.47
2022-10-17T10:58:31.557Z,100648.62
2022-10-17T11:01:00.852Z,100647.78
2022-10-17T11:03:50.115Z,100646.59
2022-10-17T11:06:20.618Z,100643.34
2022-10-17T11:09:05.877Z,100643.56
2022-10-17T11:11:38.765Z,100632.66
2022-10-17T11:14:13.767Z,100638.44
2022-10-17T11:16:46.350Z,100634.88
2022-10-17T11:19:16.044Z,100637.59
2022-10-17T11:22:02.186Z,100636.13
2022-10-17T11:24:40.900Z,100634.94
2022-10-17T11:27:08.334Z,100636.72
2022-10-17T11:29:36.288Z,100634.34
2022-10-17T11:32:06.067Z,100630.47
2022-10-17T11:34:35.566Z,100643.13
2022-10-17T11:37:04.758Z,100626.63
2022-10-17T11:39:31.873Z,100634.53
2022-10-17T11:42:04.316Z,100627.41
2022-10-17T11:44:36.205Z,100622.66
2022-10-17T11:47:22.665Z,100614.44
2022-10-17T11:53:10.488Z,100609.63
2022-10-17T11:55:38.457Z,100606.37
2022-10-17T11:58:24.941Z,100610.97
2022-10-17T12:01:01.616Z,100606.56
2022-10-17T12:03:32.143Z,100611.25
2022-10-17T12:06:17.319Z,100607.38
2022-10-17T12:08:47.233Z,100608.41
2022-10-17T12:11:21.816Z,100606.22
2022-10-17T12:13:51.641Z,100602.91
2022-10-17T12:16:18.771Z,100607.78
2022-10-17T12:18:46.724Z,100604.69
2022-10-17T12:21:14.183Z,100599.16
2022-10-17T12:23:41.374Z,100590.91
2022-10-17T12:26:09.420Z,100598.69
2022-10-17T12:28:39.917Z,100594.62
2022-10-17T12:31:16.188Z,100591.38
2022-10-17T12:33:46.645Z,100582.72
2022-10-17T12:36:17.075Z,100581.84
2022-10-17T12:39:13.660Z,100582.38
2022-10-17T12:41:40.859Z,100574.28
2022-10-17T12:44:14.561Z,100577.56
2022-10-17T12:46:57.542Z,100573.56
2022-10-17T12:49:41.851Z,100576.81
2022-10-17T12:52:15.163Z,100573.66
2022-10-17T12:54:47.961Z,100578.47
2022-10-17T12:57:32.693Z,100580.84
2022-10-17T13:00:05.334Z,100576.25
2022-10-17T13:02:32.477Z,100574.00
2022-10-17T13:05:11.725Z,100573.84
2022-10-17T13:07:38.868Z,100577.66
2022-10-17T13:10:06.485Z,100572.31
2022-10-17T13:12:37.671Z,100574.06
2022-10-17T13:15:08.228Z,100579.59
2022-10-17T13:17:35.383Z,100567.03
2022-10-17T13:20:03.059Z,100565.19
2022-10-17T13:22:31.866Z,100563.72
2022-10-17T13:25:07.474Z,100560.56
2022-10-17T13:27:35.568Z,100561.66
2022-10-17T13:30:17.276Z,100559.66
2022-10-17T13:32:45.534Z,100565.91
2022-10-17T13:35:22.055Z,100566.31
2022-10-17T13:37:54.100Z,100562.63
2022-10-17T13:40:40.924Z,100565.44
2022-10-17T13:43:17.187Z,100562.72
2022-10-17T13:45:51.920Z,100560.06
2022-10-17T13:48:23.789Z,100564.34
2022-10-17T13:50:52.057Z,100560.13
2022-10-17T13:53:26.769Z,100561.75
2022-10-17T13:56:15.706Z,100560.28
2022-10-17T13:58:45.688Z,100563.69
2022-10-17T14:01:13.180Z,100552.00
2022-10-17T14:03:48.358Z,100560.34
2022-10-17T14:06:17.471Z,100558.94
2022-10-17T14:09:11.267Z,100561.31
2022-10-17T14:11:41.976Z,100559.75
2022-10-17T14:14:51.984Z,100558.94
2022-10-17T14:17:24.178Z,100558.22
2022-10-17T14:20:05.874Z,100549.37
2022-10-17T14:22:39.371Z,100549.34
2022-10-17T14:25:26.353Z,100550.59
2022-10-17T14:27:55.786Z,100547.19
2022-10-17T14:30:51.715Z,100548.63
2022-10-17T14:33:34.605Z,100548.81
2022-10-17T14:36:05.282Z,100553.50
2022-10-17T14:38:32.430Z,100551.66
2022-10-17T14:41:20.945Z,100549.00
2022-10-17T14:43:52.430Z,100546.75
2022-10-17T14:46:19.574Z,100556.94
2022-10-17T14:48:47.773Z,100556.28
2022-10-17T14:51:15.928Z,100555.87
2022-10-17T14:53:44.427Z,100549.06
2022-10-17T14:56:24.622Z,100547.81
2022-10-17T14:58:52.276Z,100545.16
2022-10-17T15:01:19.523Z,100553.72
2022-10-17T15:03:46.879Z,100550.78
2022-10-17T15:06:19.186Z,100543.97
2022-10-17T15:08:46.327Z,100543.88
2022-10-17T15:11:13.499Z,100548.41
2022-10-17T15:13:45.430Z,100554.09
2022-10-17T15:16:14.162Z,100549.13
2022-10-17T15:18:41.664Z,100553.06
2022-10-17T15:21:33.799Z,100558.19
2022-10-17T15:24:01.773Z,100551.50
2022-10-17T15:26:30.369Z,100553.69
2022-10-17T15:28:57.594Z,100559.97
2022-10-17T15:31:25.998Z,100559.22
2022-10-17T15:33:53.295Z,100554.75
2022-10-17T15:36:23.499Z,100558.66
2022-10-17T15:38:52.524Z,100561.97
2022-10-17T15:41:19.826Z,100567.41
2022-10-17T15:43:47.741Z,100570.34
2022-10-17T15:46:17.359Z,100568.28
2022-10-17T15:48:44.787Z,100563.13
2022-10-17T15:51:12.032Z,100566.00
2022-10-17T15:53:39.810Z,100570.28
2022-10-17T15:56:09.439Z,100570.84
2022-10-17T15:58:40.414Z,100581.12
2022-10-17T16:01:08.114Z,100570.81
2022-10-17T16:03:35.791Z,100583.19
2022-10-17T16:06:02.967Z,100572.19
2022-10-17T16:08:30.148Z,100578.19
2022-10-17T16:10:57.635Z,100583.03
2022-10-17T16:13:24.829Z,100579.31
2022-10-17T16:15:52.939Z,100580.09
2022-10-17T16:18:21.214Z,100577.66
2022-10-17T16:20:48.433Z,100589.87
2022-10-17T16:23:16.818Z,100584.72
2022-10-17T16:25:44.218Z,100585.91
2022-10-17T16:28:12.053Z,100586.72
2022-10-17T16:30:42.469Z,100586.66
2022-10-17T16:33:10.446Z,100585.06
2022-10-17T16:35:37.837Z,100587.06
2022-10-17T16:38:05.807Z,100583.72
2022-10-17T16:40:33.378Z,100593.56
2022-10-17T16:43:00.514Z,100594.25
2022-10-17T16:45:27.664Z,100591.66
2022-10-17T16:47:55.098Z,100594.19
2022-10-17T16:50:22.323Z,100599.22
2022-10-17T16:52:49.457Z,100604.75
2022-10-17T16:55:18.968Z,100603.25
2022-10-17T16:57:46.234Z,100593.41
2022-10-17T17:00:15.034Z,100605.50
2022-10-17T17:02:42.728Z,100599.59
2022-10-17T17:05:09.989Z,100598.94
2022-10-17T17:07:37.488Z,100602.78
2022-10-17T17:10:05.203Z,100609.69
2022-10-17T17:12:35.689Z,100592.75
2022-10-17T17:15:04.099Z,100607.69
2022-10-17T17:17:48.724Z,100607.88
2022-10-17T17:20:19.003Z,100606.28
2022-10-17T17:22:46.624Z,100608.88
2022-10-17T17:25:14.307Z,100608.81
2022-10-17T17:27:41.880Z,100615.00
2022-10-17T17:30:09.824Z,100616.09
2022-10-17T17:32:37.041Z,100615.31
2022-10-17T17:35:04.480Z,100610.72
2022-10-17T17:37:32.618Z,100619.75
2022-10-17T17:40:00.185Z,100617.22
2022-10-17T17:42:27.526Z,100615.56
2022-10-17T17:44:55.415Z,100615.91
2022-10-17T17:47:23.078Z,100612.34
2022-10-17T17:49:50.438Z,100613.47
2022-10-17T17:52:17.971Z,100609.66
2022-10-17T17:54:45.219Z,100614.41
2022-10-17T17:57:13.219Z,100612.78
2022-10-17T17:59:41.589Z,100622.09
2022-10-17T18:02:10.052Z,100613.25
2022-10-17T18:04:37.629Z,100624.03
2022-10-17T18:07:04.865Z,100621.44
2022-10-17T18:09:32.260Z,100622.50
2022-10-17T18:12:00.188Z,100617.22
2022-10-17T18:14:27.930Z,100616.94
2022-10-17T18:16:56.239Z,100608.47
2022-10-17T18:19:24.188Z,100609.41
2022-10-17T18:21:51.406Z,100609.91
2022-10-17T18:24:18.939Z,100611.81
2022-10-17T18:26:46.813Z,100615.41
2022-10-17T18:29:15.465Z,100604.84
2022-10-17T18:31:43.485Z,100607.69
2022-10-17T18:34:11.355Z,100606.84
2022-10-17T18:36:39.036Z,100607.69
2022-10-17T18:39:06.267Z,100602.69
2022-10-17T18:41:34.280Z,100607.03
2022-10-17T18:44:03.627Z,100615.69
2022-10-17T18:46:35.885Z,100611.56
2022-10-17T18:49:03.808Z,100611.03
2022-10-17T18:51:31.425Z,100602.25
2022-10-17T18:53:59.077Z,100610.13
2022-10-17T18:56:26.925Z,100611.91
2022-10-17T18:58:54.643Z,100611.91
2022-10-17T19:01:23.419Z,100611.50
2022-10-17T19:03:51.658Z,100613.72
2022-10-17T19:06:19.678Z,100606.00
2022-10-17T19:08:49.062Z,100612.09
2022-10-17T19:11:26.077Z,100613.69
2022-10-17T19:13:53.336Z,100611.03
2022-10-17T19:16:22.103Z,100617.22
2022-10-17T19:18:53.093Z,100616.31
2022-10-17T19:21:22.070Z,100609.38
2022-10-17T19:23:51.039Z,100610.13
2022-10-17T19:26:18.657Z,100605.75
2022-10-17T19:28:46.587Z,100615.41
2022-10-17T19:31:16.985Z,100607.66
2022-10-17T19:33:45.985Z,100609.22
2022-10-17T19:36:13.838Z,100612.00
2022-10-17T19:38:41.083Z,100602.41
2022-10-17T19:41:09.134Z,100602.38
2022-10-17T19:43:37.260Z,100609.34
2022-10-17T19:46:05.404Z,100605.66
2022-10-17T19:48:33.909Z,100610.09
2022-10-17T19:51:01.111Z,100597.84
2022-10-17T19:53:29.519Z,100602.13
2022-10-17T19:55:58.549Z,100598.81
2022-10-17T19:58:26.373Z,100603.91
2022-10-17T20:00:57.293Z,100605.41
2022-10-17T20:03:25.208Z,100605.63
2022-10-17T20:05:52.593Z,100599.16
2022-10-17T20:08:19.890Z,100601.19
2022-10-17T20:10:47.341Z,100603.75
2022-10-17T20:13:14.592Z,100600.34
2022-10-17T20:15:41.696Z,100597.88
2022-10-17T20:18:09.286Z,100606.72
2022-10-17T20:20:36.687Z,100604.91
2022-10-17T20:23:04.395Z,100606.69
2022-10-17T20:25:34.618Z,100605.75
2022-10-17T20:28:01.923Z,100603.16
2022-10-17T20:30:29.657Z,100599.69
2022-10-17T20:33:21.409Z,100603.28
2022-10-17T20:35:57.670Z,100608.41
2022-10-17T20:38:25.096Z,100612.78
2022-10-17T20:40:52.187Z,100607.41
2022-10-17T20:43:19.309Z,100602.19
2022-10-17T20:45:51.180Z,100594.94
2022-10-17T20:48:19.122Z,100604.88
2022-10-17T20:50:46.544Z,100601.34
2022-10-17T20:56:04.885Z,100592.56
2022-10-17T20:58:32.017Z,100599.59
2022-10-17T21:00:59.337Z,100593.59
2022-10-17T21:03:26.750Z,100592.56
2022-10-17T21:05:53.855Z,100594.31
2022-10-17T21:08:20.971Z,100596.94
2022-10-17T21:10:48.363Z,100600.53
2022-10-17T21:13:15.486Z,100600.50
2022-10-17T21:15:42.600Z,100591.75
2022-10-17T21:18:09.977Z,100603.16
2022-10-17T21:20:37.718Z,100593.47
2022-10-17T21:23:04.852Z,100596.13
2022-10-17T21:25:32.241Z,100594.34
2022-10-17T21:27:59.535Z,100596.97
2022-10-17T21:30:26.649Z,100598.03
2022-10-17T21:32:55.238Z,100594.44
2022-10-17T21:35:22.865Z,100596.34
2022-10-17T21:37:50.003Z,100597.38
2022-10-17T21:40:17.420Z,100591.97
2022-10-17T21:42:44.537Z,100599.91
2022-10-17T21:45:15.596Z,100605.19
2022-10-17T21:48:11.286Z,100600.91
2022-10-17T21:50:34.707Z,100597.38
2022-10-17T21:53:02.129Z,100592.25
2022-10-17T21:55:29.242Z,100591.28
2022-10-17T21:57:56.378Z,100593.06
2022-10-17T22:00:23.802Z,100592.16
2022-10-17T22:02:51.183Z,100595.69
2022-10-17T22:05:18.325Z,100594.81
2022-10-17T22:07:45.442Z,100595.69
2022-10-17T22:10:12.830Z,100586.94
2022-10-17T22:12:39.967Z,100594.91
2022-10-17T22:15:07.390Z,100586.16
2022-10-17T22:17:34.845Z,100581.75
2022-10-17T22:20:01.960Z,100577.38
2022-10-17T22:22:30.058Z,100581.75
2022-10-17T22:24:57.424Z,100579.19
2022-10-17T22:27:24.612Z,100586.22
2022-10-17T22:29:51.719Z,100578.25
2022-10-17T22:32:21.718Z,100581.91
2022-10-17T22:34:49.815Z,100575.78
2022-10-17T22:37:16.943Z,100576.66
2022-10-17T22:39:44.342Z,100578.38
2022-10-17T22:42:11.506Z,100577.56
2022-10-17T22:44:38.647Z,100574.00
2022-10-17T22:47:06.052Z,100572.25
2022-10-17T22:49:33.610Z,100574.00
2022-10-17T22:52:00.821Z,100581.19
2022-10-17T22:54:28.201Z,100577.59
2022-10-17T22:56:55.381Z,100580.22
2022-10-17T22:59:22.507Z,100583.97
2022-10-17T23:01:49.957Z,100589.16
2022-10-17T23:04:17.091Z,100581.31
2022-10-17T23:06:44.229Z,100570.78
2022-10-17T23:09:12.397Z,100563.72
2022-10-17T23:11:39.518Z,100570.81
2022-10-17T23:14:06.666Z,100563.75
2022-10-17T23:16:34.043Z,100554.09
2022-10-17T23:19:01.203Z,100553.22
2022-10-17T23:21:28.325Z,100548.87
2022-10-17T23:23:55.712Z,100554.19
2022-10-17T23:26:22.829Z,100541.00
2022-10-17T23:28:53.288Z,100544.50
2022-10-17T23:31:21.047Z,100541.91
2022-10-17T23:33:48.800Z,100551.56
2022-10-17T23:36:16.814Z,100548.91
2022-10-17T23:38:44.597Z,100547.19
2022-10-17T23:41:11.736Z,100547.12
2022-10-17T23:43:38.883Z,100550.72
2022-10-17T23:46:06.547Z,100541.00
2022-10-17T23:48:33.730Z,100548.91
2022-10-17T23:51:01.023Z,100548.94
2022-10-17T23:53:28.414Z,100538.34
2022-10-17T23:55:55.520Z,100533.09
2022-10-17T23:58:22.663Z,100532.13
